2022年8月16日

时间 代码 天气 温度 能见度 天花板 METAR/SPECI
12:55
V
27 °C 10 km+ - 020° 020° 2 kt METAR LIPI 161055Z 02002KT CAVOK 27/12 Q1010 RMK SKC VIS MIN 9999 WIND THR06 36003KT WIND THR24 20002KT BLU
11:55
V
26 °C 10 km+ - 350° 350° 4 kt METAR LIPI 160955Z 35004KT CAVOK 26/13 Q1010 RMK SKC VIS MIN 9999 WIND THR06 34005KT WIND THR24 35005KT BLU
10:55
V
25 °C 10 km+ - 350° 350° 3 kt METAR LIPI 160855Z 35003KT CAVOK 25/15 Q1010 RMK SKC VIS MIN 9999 WIND THR06 04004KT WIND THR24 09003KT BLU
09:55
V
23 °C 10 km+ - 100° 100° 2 kt METAR LIPI 160755Z 10002KT CAVOK 23/15 Q1010
08:55
V
21 °C 10 km+ - 340° 340° 3 kt METAR LIPI 160655Z 34003KT 9999 FEW100 21/16 Q1010 RMK FEW VIS MIN 9999 WIND THR06 02003KT WIND THR24 34003KT BLU
07:55
V
19 °C 10 km+ - 290° 290° 2 kt METAR LIPI 160555Z 29002KT 9999 SCT090 19/15 Q1009 RMK SCT VIS MIN 9999 WIND THR06 32004KT WIND THR24 31003KT BLU
06:55
V
18 °C 10 km+ - 050° 050° 4 kt METAR LIPI 160455Z 05004KT 9999 SCT080 18/17 Q1008 RMK SCT VIS MIN 9999 WIND THR06 10005KT WIND THR24 08005KT BLU
05:55
V
18 °C 10 km+ - 340° 340° 4 kt METAR LIPI 160355Z 34004KT 9999 FEW050 SCT080 18/17 Q1008 RMK BKN VIS MIN 9999 WIND THR06 02005KT WIND THR24 36004KT BLU
04:55
V
18 °C 10 km+ - 010° 010° 5 kt METAR LIPI 160255Z 01005KT 9999 SCT050 18/16 Q1008 RMK SCT VIS MIN 9999 WIND THR06 05007KT WIND THR24 03004KT BLU
03:55
V
18 °C 10 km+ 4.000 ft 340° 340° 9 kt METAR LIPI 160155Z 34009KT 9999 BKN040 18/15 Q1009
02:55
V
19 °C 10 km+ - 300° 300° 7 kt METAR LIPI 160055Z 30007KT 9999 -TSRA SCT020CB SCT030 19/19 Q1009
01:55
M
20 °C 6 km - 210° 210° 17 - 27 kt METAR LIPI 152355Z 21017G27KT 6000 TSRA SCT020CB SCT030 20/20 Q1009
00:55
V
22 °C 10 km+ 5.000 ft 360° 360° 4 kt METAR LIPI 152255Z 36004KT 9999 FEW040 BKN050 22/20 Q1008 RMK BKN VIS MIN 9999 WIND THR06 02003KT WIND THR24 36002KT BLU

2022年8月15日

时间 代码 天气 温度 能见度 天花板 METAR/SPECI
23:55
V
22 °C 10 km+ - 030° 030° 3 kt METAR LIPI 152155Z 03003KT 9999 FEW040 SCT070 22/20 Q1008
22:55
V
22 °C 10 km+ - 040° 040° 4 kt METAR LIPI 152055Z 04004KT 9999 FEW040 SCT070 22/19 Q1007
21:55
V
22 °C 10 km+ - 010° 010° 5 kt METAR LIPI 151955Z 01005KT 9999 FEW040 SCT070 22/18 Q1007 RMK SCT VIS MIN 9999 WIND THR06 04006KT WIND THR24 04004KT BLU
20:55
V
23 °C 10 km+ - 030° 030° 3 kt METAR LIPI 151855Z 03003KT 9999 FEW070 23/19 Q1007
19:55
V
25 °C 10 km+ - 110° 110° 4 kt METAR LIPI 151755Z 11004KT 9999 FEW070 25/18 Q1006
18:55
V
27 °C 10 km+ - 110° 110° 7 kt METAR LIPI 151655Z 11007KT CAVOK 27/20 Q1006 RMK FEW FEW200 VIS MIN 9999 WIND THR06 13006KT WIND THR24 12007KT BLU
17:55
V
28 °C 10 km+ - 130° 130° 8 kt METAR LIPI 151555Z 13008KT CAVOK 28/18 Q1006 RMK SCT SCT200 VIS MIN 9999 WIND THR06 14008KT WIND THR24 14008KT BLU
16:55
V
29 °C 10 km+ - 150° 150° 7 kt METAR LIPI 151455Z 15007KT 9999 FEW050 29/17 Q1006 RMK BKN SCT200 VIS MIN 9999 WIND THR06 16006KT WIND THR24 15007KT BLU
15:55
V
30 °C 10 km+ - 130° 130° 6 kt METAR LIPI 151355Z 13006KT CAVOK 30/16 Q1006
14:55
V
31 °C 10 km+ - 110° 110° 6 kt METAR LIPI 151255Z 11006KT CAVOK 31/13 Q1007 RMK SKC VIS MIN 9999 WIND THR06 17006KT WIND THR24 14005KT BLU
13:55
V
30 °C 10 km+ - 100° 100° 5 kt METAR LIPI 151155Z 10005KT 9999 FEW100 30/16 Q1007 RMK FEW VIS MIN 9999 WIND THR06 VRB03KT WIND THR24 12005KT BLU
12:55
V
28 °C 10 km+ - 100° 100° 4 kt METAR LIPI 151055Z 10004KT 9999 FEW100 28/16 Q1007 RMK SCT SCT180 VIS MIN 9999 WIND THR06 08004KT WIND THR24 VRB03KT BLU
11:55
V
28 °C 10 km+ - 160° 160° 4 kt METAR LIPI 150955Z 16004KT 9999 FEW100 28/15 Q1008
10:55
V
27 °C 10 km+ - Var Var 3 kt METAR LIPI 150855Z VRB03KT 9999 FEW100 27/14 Q1008 RMK SCT SCT180 VIS MIN 9999 WIND THR06 VRB03KT WIND THR24 14004KT BLU
09:55
V
25 °C 10 km+ - 010° 010° 2 kt METAR LIPI 150755Z 01002KT 9999 FEW090 25/13 Q1007
08:55
V
23 °C 10 km+ - 350° 350° 3 kt METAR LIPI 150655Z 35003KT 9999 FEW090 23/15 Q1007 RMK SCT SCT200 VIS MIN 9999 WIND THR06 01003KT WIND THR24 33003KT BLU
07:55
V
20 °C 10 km+ - 350° 350° 3 kt METAR LIPI 150555Z 35003KT 9999 FEW090 20/15 Q1007 RMK SCT SCT200 VIS MIN 9999 WIND THR06 04004KT WIND THR24 01002KT BLU
06:55
V
18 °C 10 km+ - 330° 330° 5 kt METAR LIPI 150455Z 33005KT CAVOK 18/15 Q1007
05:55
V
18 °C 10 km+ - 340° 340° 6 kt METAR LIPI 150355Z 34006KT CAVOK 18/15 Q1007 RMK FEW FEW200 VIS MIN 9999 WIND THR06 03003KT WIND THR24 35003KT BLU
04:55
V
18 °C 10 km+ - 340° 340° 3 kt METAR LIPI 150255Z 34003KT CAVOK 18/15 Q1007
03:55
V
18 °C 10 km+ - 320° 320° 5 kt METAR LIPI 150155Z 32005KT CAVOK 18/15 Q1007 RMK SKC VIS MIN 9999 WIND THR06 35004KT WIND THR24 32004KT BLU
02:55
V
18 °C 10 km+ - 010° 010° 5 kt METAR LIPI 150055Z 01005KT CAVOK 18/16 Q1007
01:55
V
18 °C 10 km+ - 340° 340° 3 kt METAR LIPI 142355Z 34003KT CAVOK 18/16 Q1008
00:55
V
19 °C 10 km+ - 010° 010° 4 kt METAR LIPI 142255Z 01004KT CAVOK 19/17 Q1008

2022年8月14日

时间 代码 天气 温度 能见度 天花板 METAR/SPECI
23:55
V
21 °C 10 km+ - 020° 020° 2 kt METAR LIPI 142155Z 02002KT CAVOK 21/17 Q1008 RMK SKC VIS MIN 9999 WIND THR06 06002KT WIND THR24 05003KT BLU
22:55
V
20 °C 10 km+ - 030° 030° 3 kt METAR LIPI 142055Z 03003KT CAVOK 20/18 Q1008 RMK SKC VIS MIN 9999 WIND THR06 05002KT WIND THR24 04002KT BLU
21:55
V
21 °C 10 km+ - 320° 320° 2 kt METAR LIPI 141955Z 32002KT CAVOK 21/17 Q1008
20:55
V
23 °C 10 km+ - 060° 060° 1 kt METAR LIPI 141855Z 06001KT CAVOK 23/17 Q1007
19:55
V
25 °C 10 km+ - 150° 150° 5 kt METAR LIPI 141755Z 15005KT CAVOK 25/17 Q1006
18:55
V
28 °C 10 km+ - 150° 150° 7 kt METAR LIPI 141655Z 15007KT CAVOK 28/15 Q1006
17:55
V
29 °C 10 km+ - 160° 160° 7 kt METAR LIPI 141555Z 16007KT 9999 FEW080 29/14 Q1007 RMK FEW VIS MIN 9999 WIND THR06 18008KT WIND THR24 17006KT BLU
16:55
V
30 °C 10 km+ - 150° 150° 7 kt METAR LIPI 141455Z 15007KT 9999 FEW080 30/13 Q1008 RMK FEW VIS MIN 9999 WIND THR06 19010KT WIND THR24 18007KT BLU
15:55
V
30 °C 10 km+ - 170° 170° 8 kt METAR LIPI 141355Z 17008KT 9999 FEW080 30/13 Q1008
14:55
V
30 °C 10 km+ - 210° 210° 5 kt METAR LIPI 141255Z 21005KT CAVOK 30/14 Q1009 RMK SKC VIS MIN 9999 WIND THR06 18006KT WIND THR24 18004KT BLU
较旧的数据

我们和第三方通过cookies跟踪您在我们网站上的上网行为。如果您继续,我们认为您同意我们的cookie政策。 了解更多